CheckWX is a tool to help pilots better visualize weather data.  It is not intended as a substitute for an official pre-flight weather briefing.

05:36:41 UTC

KLFT METAR
Lafayette Regional / Paul Fournet Field Airport
Lafayette, Louisiana, USA
Current

44 mins ago

KLFT 180453Z AUTO 18004KT 10SM CLR 27/25 A2993 RMK AO2 SLP134 T02670250
Observed
Aug-18 @ 04:53 UTC
Wind
  • 180° at 4 KTS
Visibility
10 SM
Flight Rules
VFR
Cloud Levels
  • Clear skies
Temperature
27°C / 81°F
Dewpoint
25°C / 77°F
Heat Index
31°C / 88°F
Humidity
89%
Altimeter
29.93" Hg
Pressure
1013.52 hPa
Previous

2 hours ago

KLFT 180353Z AUTO 18003KT 10SM CLR 27/24 A2994 RMK AO2 SLP137 T02670244
Observed
Aug-18 @ 03:53 UTC
Wind
  • 180° at 3 KTS
Visibility
10 SM
Flight Rules
VFR
Cloud Levels
  • Clear skies
Temperature
27°C / 81°F
Dewpoint
24°C / 75°F
Heat Index
31°C / 87°F
Humidity
84%
Altimeter
29.94" Hg
Pressure
1013.92 hPa
Previous

3 hours ago

KLFT 180253Z 00000KT 10SM CLR 27/25 A2993 RMK AO2 SLP135 T02670250 53009
Observed
Aug-18 @ 02:53 UTC
Visibility
10 SM
Flight Rules
VFR
Cloud Levels
  • Clear skies
Temperature
27°C / 81°F
Dewpoint
25°C / 77°F
Heat Index
31°C / 88°F
Humidity
89%
Altimeter
29.93" Hg
Pressure
1013.52 hPa